createdAt,value
2023-04-02T00:01:05.363Z,33.80
2023-04-02T00:03:56.869Z,28.05
2023-04-02T00:06:35.258Z,31.23
2023-04-02T00:09:19.682Z,24.77
2023-04-02T00:11:57.758Z,25.20
2023-04-02T00:14:36.197Z,38.23
2023-04-02T00:17:08.629Z,26.77
2023-04-02T00:19:52.622Z,27.37
2023-04-02T00:22:31.825Z,32.80
2023-04-02T00:25:07.828Z,28.02
2023-04-02T00:27:40.291Z,28.83
2023-04-02T00:30:14.170Z,35.60
2023-04-02T00:32:47.825Z,31.82
2023-04-02T00:35:25.672Z,33.25
2023-04-02T00:37:58.733Z,31.40
2023-04-02T00:40:32.924Z,32.45
2023-04-02T00:43:07.247Z,30.80
2023-04-02T00:45:40.423Z,30.57
2023-04-02T00:48:27.454Z,30.10
2023-04-02T00:51:02.744Z,30.82
2023-04-02T00:53:36.776Z,27.82
2023-04-02T00:56:11.867Z,33.23
2023-04-02T00:58:46.098Z,29.57
2023-04-02T01:01:21.661Z,35.30
2023-04-02T01:04:03.127Z,32.33
2023-04-02T01:06:40.101Z,30.82
2023-04-02T01:09:18.469Z,30.05
2023-04-02T01:12:08.300Z,26.93
2023-04-02T01:14:55.291Z,33.60
2023-04-02T01:17:38.816Z,28.17
2023-04-02T01:20:28.834Z,31.33
2023-04-02T01:23:08.149Z,24.37
2023-04-02T01:25:43.140Z,31.07
2023-04-02T01:28:35.547Z,30.05
2023-04-02T01:31:07.850Z,29.20
2023-04-02T01:33:42.734Z,33.38
2023-04-02T01:36:20.613Z,21.63
2023-04-02T01:39:04.732Z,23.73
2023-04-02T01:41:39.604Z,23.40
2023-04-02T01:44:14.492Z,26.52
2023-04-02T01:46:50.231Z,27.02
2023-04-02T01:49:23.506Z,28.47
2023-04-02T01:51:58.438Z,26.25
2023-04-02T01:54:32.908Z,24.92
2023-04-02T01:57:06.117Z,26.15
2023-04-02T01:59:38.302Z,24.45
2023-04-02T02:02:15.881Z,28.07
2023-04-02T02:04:49.042Z,25.90
2023-04-02T02:07:22.242Z,26.20
2023-04-02T02:09:55.921Z,27.13
2023-04-02T02:12:27.996Z,21.50
2023-04-02T02:14:59.993Z,28.60
2023-04-02T02:17:34.677Z,31.23
2023-04-02T02:20:09.804Z,29.40
2023-04-02T02:22:47.724Z,24.10
2023-04-02T02:25:22.858Z,28.52
2023-04-02T02:28:18.960Z,23.87
2023-04-02T02:30:56.498Z,24.40
2023-04-02T02:33:31.740Z,22.65
2023-04-02T02:36:08.368Z,27.45
2023-04-02T02:38:48.411Z,27.65
2023-04-02T02:41:34.012Z,20.48
2023-04-02T02:44:15.475Z,28.30
2023-04-02T02:46:59.627Z,27.75
2023-04-02T02:49:40.518Z,22.67
2023-04-02T02:52:18.655Z,21.85
2023-04-02T02:54:58.410Z,25.27
2023-04-02T02:57:38.637Z,27.52
2023-04-02T03:00:12.052Z,28.30
2023-04-02T03:02:45.464Z,27.73
2023-04-02T03:05:21.260Z,22.37
2023-04-02T03:07:57.195Z,24.18
2023-04-02T03:10:42.169Z,21.87
2023-04-02T03:13:25.801Z,30.85
2023-04-02T03:16:03.810Z,20.05
2023-04-02T03:18:53.852Z,24.23
2023-04-02T03:21:49.221Z,25.12
2023-04-02T03:24:36.611Z,21.65
2023-04-02T03:27:20.638Z,21.85
2023-04-02T03:30:27.654Z,24.90
2023-04-02T03:33:03.532Z,25.05
2023-04-02T03:35:47.363Z,21.30
2023-04-02T03:38:28.638Z,19.70
2023-04-02T03:41:03.809Z,21.35
2023-04-02T03:43:39.457Z,20.15
2023-04-02T03:46:36.692Z,19.92
2023-04-02T03:49:14.787Z,20.25
2023-04-02T03:51:55.660Z,31.90
2023-04-02T03:54:29.101Z,20.48
2023-04-02T03:57:01.941Z,23.30
2023-04-02T03:59:52.417Z,16.75
2023-04-02T04:02:48.372Z,19.35
2023-04-02T04:05:26.991Z,18.35
2023-04-02T04:08:02.454Z,20.12
2023-04-02T04:10:36.265Z,17.67
2023-04-02T04:13:20.709Z,19.32
2023-04-02T04:15:58.157Z,16.73
2023-04-02T04:19:01.822Z,16.95
2023-04-02T04:21:38.286Z,13.65
2023-04-02T04:24:23.770Z,13.85
2023-04-02T04:27:17.184Z,13.88
2023-04-02T04:30:02.930Z,16.52
2023-04-02T04:32:42.929Z,16.10
2023-04-02T04:35:35.195Z,15.65
2023-04-02T04:38:29.107Z,16.55
2023-04-02T04:41:16.649Z,14.73
2023-04-02T04:44:20.314Z,15.03
2023-04-02T04:47:01.631Z,15.98
2023-04-02T04:49:43.003Z,13.40
2023-04-02T04:52:24.505Z,25.35
2023-04-02T04:54:56.753Z,15.03
2023-04-02T04:57:41.189Z,15.28
2023-04-02T05:00:23.353Z,15.30
2023-04-02T05:03:16.350Z,23.87
2023-04-02T05:05:49.087Z,19.40
2023-04-02T05:08:24.569Z,16.48
2023-04-02T05:11:00.371Z,16.42
2023-04-02T05:13:47.755Z,15.38
2023-04-02T05:16:40.793Z,12.18
2023-04-02T05:19:22.022Z,16.00
2023-04-02T05:22:02.995Z,19.98
2023-04-02T05:24:49.961Z,17.15
2023-04-02T05:27:52.843Z,15.00
2023-04-02T05:30:28.308Z,15.65
2023-04-02T05:33:05.283Z,15.38
2023-04-02T05:35:39.942Z,15.48
2023-04-02T05:38:24.329Z,17.40
2023-04-02T05:41:07.910Z,16.35
2023-04-02T05:43:42.674Z,21.05
2023-04-02T05:46:18.312Z,19.02
2023-04-02T05:48:54.335Z,15.58
2023-04-02T05:51:32.539Z,23.02
2023-04-02T05:54:07.798Z,19.73
2023-04-02T05:56:45.912Z,18.00
2023-04-02T05:59:27.324Z,18.82
2023-04-02T06:02:03.945Z,26.37
2023-04-02T06:04:49.069Z,28.27
2023-04-02T06:07:36.211Z,17.67
2023-04-02T06:10:25.897Z,16.97
2023-04-02T06:13:06.637Z,19.95
2023-04-02T06:15:40.455Z,17.07
2023-04-02T06:18:17.547Z,17.27
2023-04-02T06:20:51.252Z,24.00
2023-04-02T06:23:41.038Z,14.47
2023-04-02T06:26:28.193Z,15.70
2023-04-02T06:29:15.621Z,18.15
2023-04-02T06:31:50.769Z,19.45
2023-04-02T06:34:26.945Z,20.32
2023-04-02T06:37:24.928Z,19.87
2023-04-02T06:40:00.239Z,14.15
2023-04-02T06:45:22.159Z,15.50
2023-04-02T06:47:59.058Z,15.65
2023-04-02T06:50:36.184Z,25.23
2023-04-02T06:53:11.923Z,16.20
2023-04-02T06:55:55.821Z,16.82
2023-04-02T06:58:29.451Z,14.28
2023-04-02T07:01:01.798Z,15.95
2023-04-02T07:03:42.273Z,13.90
2023-04-02T07:06:21.940Z,16.67
2023-04-02T07:08:55.740Z,16.80
2023-04-02T07:11:28.498Z,16.12
2023-04-02T07:14:02.137Z,24.30
2023-04-02T07:16:36.835Z,21.07
2023-04-02T07:19:11.070Z,16.10
2023-04-02T07:21:43.130Z,16.90
2023-04-02T07:24:15.575Z,18.00
2023-04-02T07:26:48.384Z,15.75
2023-04-02T07:29:20.402Z,18.02
2023-04-02T07:31:54.114Z,21.00
2023-04-02T07:34:27.131Z,14.95
2023-04-02T07:36:59.049Z,14.13
2023-04-02T07:39:31.435Z,16.70
2023-04-02T07:42:03.806Z,11.80
2023-04-02T07:44:35.877Z,13.90
2023-04-02T07:47:09.818Z,13.08
2023-04-02T07:49:41.935Z,17.40
2023-04-02T07:52:14.238Z,16.80
2023-04-02T07:54:46.634Z,22.35
2023-04-02T07:57:18.739Z,14.85
2023-04-02T07:59:51.904Z,17.12
2023-04-02T08:02:24.889Z,17.60
2023-04-02T08:04:56.947Z,13.93
2023-04-02T08:07:29.477Z,20.48
2023-04-02T08:10:01.561Z,20.32
2023-04-02T08:12:34.071Z,25.02
2023-04-02T08:15:07.660Z,21.45
2023-04-02T08:17:39.610Z,24.60
2023-04-02T08:20:23.082Z,18.37
2023-04-02T08:22:55.203Z,17.02
2023-04-02T08:25:27.231Z,24.20
2023-04-02T08:28:01.077Z,17.95
2023-04-02T08:30:33.469Z,17.00
2023-04-02T08:33:07.045Z,21.33
2023-04-02T08:35:39.738Z,19.52
2023-04-02T08:38:15.622Z,19.80
2023-04-02T08:40:51.053Z,21.45
2023-04-02T08:43:39.230Z,26.45
2023-04-02T08:46:23.636Z,27.35
2023-04-02T08:51:31.600Z,31.57
2023-04-02T08:54:06.698Z,15.53
2023-04-02T08:56:41.581Z,24.77
2023-04-02T08:59:25.617Z,25.05
2023-04-02T09:02:03.755Z,34.35
2023-04-02T09:04:37.088Z,28.20
2023-04-02T09:07:12.130Z,16.57
2023-04-02T09:09:44.912Z,15.93
2023-04-02T09:12:23.433Z,18.05
2023-04-02T09:15:01.455Z,17.00
2023-04-02T09:17:42.695Z,19.20
2023-04-02T09:20:21.373Z,20.60
2023-04-02T09:22:54.714Z,20.48
2023-04-02T09:25:33.667Z,16.35
2023-04-02T09:28:06.674Z,18.15
2023-04-02T09:30:59.320Z,18.82
2023-04-02T09:33:46.223Z,17.20
2023-04-02T09:36:37.754Z,19.37
2023-04-02T09:39:21.623Z,19.35
2023-04-02T09:42:05.115Z,30.15
2023-04-02T09:44:31.168Z,17.15
2023-04-02T09:47:09.587Z,21.60
2023-04-02T09:49:42.133Z,18.07
2023-04-02T09:52:31.051Z,27.73
2023-04-02T09:55:22.024Z,30.80
2023-04-02T09:57:57.022Z,20.43
2023-04-02T10:00:41.551Z,18.25
2023-04-02T10:03:06.348Z,30.92
2023-04-02T10:05:41.073Z,24.02
2023-04-02T10:08:30.411Z,21.07
2023-04-02T10:11:05.585Z,20.97
2023-04-02T10:13:55.525Z,18.07
2023-04-02T10:16:48.647Z,25.00
2023-04-02T10:19:32.666Z,16.25
2023-04-02T10:22:13.500Z,23.05
2023-04-02T10:24:46.363Z,17.92
2023-04-02T10:27:33.569Z,15.48
2023-04-02T10:30:15.142Z,22.77
2023-04-02T10:33:08.508Z,18.00
2023-04-02T10:36:04.420Z,30.15
2023-04-02T10:38:54.606Z,21.65
2023-04-02T10:41:47.546Z,21.73
2023-04-02T10:44:31.319Z,17.67
2023-04-02T10:47:09.448Z,20.03
2023-04-02T10:50:00.896Z,18.20
2023-04-02T10:52:38.672Z,20.90
2023-04-02T10:55:19.431Z,48.17
2023-04-02T10:57:53.650Z,17.90
2023-04-02T11:00:28.726Z,20.32
2023-04-02T11:03:11.470Z,15.50
2023-04-02T11:05:55.161Z,23.35
2023-04-02T11:08:48.150Z,25.10
2023-04-02T11:11:26.608Z,13.68
2023-04-02T11:14:07.565Z,23.83
2023-04-02T11:16:43.534Z,14.78
2023-04-02T11:19:19.424Z,20.80
2023-04-02T11:22:06.057Z,21.57
2023-04-02T11:24:51.336Z,19.50
2023-04-02T11:27:37.679Z,26.02
2023-04-02T11:30:18.862Z,23.75
2023-04-02T11:32:51.411Z,22.73
2023-04-02T11:35:35.482Z,21.50
2023-04-02T11:38:26.301Z,29.10
2023-04-02T11:41:00.011Z,16.25
2023-04-02T11:43:37.778Z,32.05
2023-04-02T11:46:21.693Z,18.67
2023-04-02T11:48:55.289Z,18.07
2023-04-02T11:51:36.275Z,27.07
2023-04-02T11:54:11.549Z,25.32
2023-04-02T11:56:49.346Z,29.67
2023-04-02T11:59:27.144Z,25.40
2023-04-02T12:02:04.928Z,24.85
2023-04-02T12:05:14.675Z,13.93
2023-04-02T12:07:51.854Z,18.57
2023-04-02T12:10:26.997Z,26.60
2023-04-02T12:12:59.353Z,21.48
2023-04-02T12:15:34.720Z,21.33
2023-04-02T12:18:24.736Z,15.78
2023-04-02T12:20:58.319Z,29.00
2023-04-02T12:23:33.764Z,22.70
2023-04-02T12:26:11.388Z,20.27
2023-04-02T12:28:45.006Z,29.55
2023-04-02T12:31:18.660Z,36.87
2023-04-02T12:33:54.725Z,21.33
2023-04-02T12:36:27.091Z,34.20
2023-04-02T12:38:59.870Z,22.20
2023-04-02T12:41:34.245Z,34.70
2023-04-02T12:44:11.024Z,17.05
2023-04-02T12:46:44.059Z,25.82
2023-04-02T12:49:33.848Z,24.10
2023-04-02T12:52:09.222Z,23.27
2023-04-02T12:54:55.823Z,23.35
2023-04-02T12:57:30.750Z,19.90
2023-04-02T13:00:06.758Z,29.87
2023-04-02T13:02:47.898Z,22.50
2023-04-02T13:05:42.673Z,22.45
2023-04-02T13:08:35.515Z,26.35
2023-04-02T13:11:08.442Z,22.93
2023-04-02T13:13:42.610Z,28.25
2023-04-02T13:16:17.947Z,23.02
2023-04-02T13:18:52.984Z,30.72
2023-04-02T13:21:28.661Z,23.42
2023-04-02T13:24:01.141Z,17.30
2023-04-02T13:26:33.227Z,25.27
2023-04-02T13:29:23.084Z,29.48
2023-04-02T13:31:58.081Z,18.98
2023-04-02T13:34:31.004Z,17.67
2023-04-02T13:37:03.037Z,22.90
2023-04-02T13:39:35.056Z,21.75
2023-04-02T13:42:08.961Z,32.75
2023-04-02T13:44:41.400Z,24.00
2023-04-02T13:47:15.566Z,18.45
2023-04-02T13:49:47.681Z,19.95
2023-04-02T13:52:20.494Z,23.85
2023-04-02T13:55:01.606Z,28.20
2023-04-02T13:57:34.762Z,18.50
2023-04-02T14:00:07.935Z,15.70
2023-04-02T14:02:46.408Z,19.48
2023-04-02T14:05:30.144Z,18.32
2023-04-02T14:08:17.162Z,16.62
2023-04-02T14:11:03.752Z,30.40
2023-04-02T14:13:57.721Z,21.75
2023-04-02T14:16:38.800Z,19.98
2023-04-02T14:19:38.944Z,22.82
2023-04-02T14:22:19.740Z,16.37
2023-04-02T14:25:06.791Z,19.35
2023-04-02T14:27:53.377Z,22.58
2023-04-02T14:30:43.012Z,24.92
2023-04-02T14:33:32.979Z,21.55
2023-04-02T14:36:10.999Z,17.57
2023-04-02T14:38:48.719Z,22.07
2023-04-02T14:41:45.729Z,23.12
2023-04-02T14:44:20.716Z,25.50
2023-04-02T14:46:56.392Z,22.22
2023-04-02T14:49:32.070Z,21.40
2023-04-02T14:52:07.346Z,27.35
2023-04-02T14:54:42.900Z,16.27
2023-04-02T14:57:18.951Z,29.90
2023-04-02T15:00:24.390Z,27.58
2023-04-02T15:03:19.399Z,20.57
2023-04-02T15:06:03.917Z,31.87
2023-04-02T15:08:42.154Z,32.25
2023-04-02T15:11:23.094Z,20.30
2023-04-02T15:14:16.047Z,36.20
2023-04-02T15:16:48.213Z,16.80
2023-04-02T15:19:21.550Z,18.62
2023-04-02T15:22:06.973Z,26.27
2023-04-02T15:24:43.483Z,21.40
2023-04-02T15:27:24.902Z,19.07
2023-04-02T15:30:16.144Z,24.10
2023-04-02T15:32:49.172Z,29.35
2023-04-02T15:35:36.296Z,18.30
2023-04-02T15:38:21.786Z,21.07
2023-04-02T15:41:11.780Z,16.17
2023-04-02T15:43:47.232Z,17.60
2023-04-02T15:46:56.016Z,24.57
2023-04-02T15:49:48.865Z,17.67
2023-04-02T15:52:38.788Z,28.10
2023-04-02T15:55:25.514Z,22.32
2023-04-02T15:58:01.034Z,18.35
2023-04-02T16:00:36.244Z,16.95
2023-04-02T16:03:35.333Z,21.82
2023-04-02T16:06:25.519Z,22.80
2023-04-02T16:09:06.364Z,12.82
2023-04-02T16:11:39.684Z,32.00
2023-04-02T16:14:28.971Z,19.65
2023-04-02T16:17:13.916Z,14.43
2023-04-02T16:19:45.737Z,24.90
2023-04-02T16:22:29.781Z,20.45
2023-04-02T16:25:10.403Z,12.80
2023-04-02T16:27:50.262Z,17.60
2023-04-02T16:30:34.580Z,16.82
2023-04-02T16:33:12.549Z,22.55
2023-04-02T16:35:53.045Z,22.60
2023-04-02T16:38:56.434Z,28.50
2023-04-02T16:41:52.567Z,28.90
2023-04-02T16:44:39.566Z,23.27
2023-04-02T16:47:17.907Z,12.13
2023-04-02T16:50:02.052Z,14.38
2023-04-02T16:52:37.168Z,14.03
2023-04-02T16:55:12.346Z,11.90
2023-04-02T16:58:15.844Z,13.72
2023-04-02T17:00:53.410Z,17.80
2023-04-02T17:03:56.928Z,20.05
2023-04-02T17:06:32.314Z,11.80
2023-04-02T17:09:18.669Z,16.07
2023-04-02T17:12:02.378Z,13.78
2023-04-02T17:14:40.420Z,18.80
2023-04-02T17:17:15.734Z,14.33
2023-04-02T17:19:50.976Z,16.85
2023-04-02T17:22:24.222Z,16.00
2023-04-02T17:25:01.945Z,10.25
2023-04-02T17:27:42.808Z,16.70
2023-04-02T17:30:21.175Z,21.15
2023-04-02T17:32:53.267Z,15.23
2023-04-02T17:35:47.844Z,17.25
2023-04-02T17:38:48.101Z,13.30
2023-04-02T17:41:36.184Z,15.88
2023-04-02T17:44:20.136Z,15.85
2023-04-02T17:47:04.092Z,11.95
2023-04-02T17:49:38.966Z,15.10
2023-04-02T17:52:41.136Z,13.13
2023-04-02T17:55:24.567Z,23.80
2023-04-02T17:58:11.376Z,16.05
2023-04-02T18:00:46.346Z,12.45
2023-04-02T18:03:30.317Z,11.30
2023-04-02T18:06:08.171Z,25.15
2023-04-02T18:08:54.866Z,12.68
2023-04-02T18:11:29.795Z,19.55
2023-04-02T18:14:05.449Z,10.60
2023-04-02T18:16:46.499Z,10.48
2023-04-02T18:19:40.472Z,22.07
2023-04-02T18:22:31.715Z,10.28
2023-04-02T18:25:15.306Z,15.58
2023-04-02T18:28:08.156Z,12.98
2023-04-02T18:30:43.131Z,16.32
2023-04-02T18:33:49.617Z,11.57
2023-04-02T18:36:30.213Z,15.50
2023-04-02T18:39:05.133Z,17.67
2023-04-02T18:41:48.888Z,18.87
2023-04-02T18:44:38.867Z,17.65
2023-04-02T18:47:22.568Z,11.05
2023-04-02T18:50:18.403Z,15.95
2023-04-02T18:52:51.914Z,10.13
2023-04-02T18:55:27.334Z,14.10
2023-04-02T18:58:05.348Z,15.48
2023-04-02T19:00:40.348Z,13.48
2023-04-02T19:03:27.180Z,14.45
2023-04-02T19:06:14.558Z,11.40
2023-04-02T19:09:01.397Z,7.97
2023-04-02T19:11:33.452Z,11.55
2023-04-02T19:14:19.654Z,13.40
2023-04-02T19:17:03.235Z,15.10
2023-04-02T19:20:00.580Z,8.55
2023-04-02T19:22:47.993Z,9.58
2023-04-02T19:25:38.231Z,8.65
2023-04-02T19:28:29.383Z,10.95
2023-04-02T19:31:04.576Z,9.50
2023-04-02T19:33:48.328Z,8.58
2023-04-02T19:36:32.205Z,13.05
2023-04-02T19:39:22.274Z,14.05
2023-04-02T19:41:56.570Z,10.95
2023-04-02T19:44:28.504Z,10.10
2023-04-02T19:47:00.606Z,12.07
2023-04-02T19:49:35.687Z,9.58
2023-04-02T19:52:07.990Z,9.23
2023-04-02T19:54:40.316Z,6.65
2023-04-02T19:57:15.283Z,6.47
2023-04-02T19:59:47.253Z,13.03
2023-04-02T20:02:19.180Z,24.07
2023-04-02T20:04:51.089Z,9.23
2023-04-02T20:07:23.153Z,8.15
2023-04-02T20:09:55.192Z,25.72
2023-04-02T20:12:27.132Z,12.80
2023-04-02T20:14:59.279Z,14.20
2023-04-02T20:17:31.896Z,12.33
2023-04-02T20:20:04.590Z,12.23
2023-04-02T20:22:36.707Z,10.38
2023-04-02T20:25:09.234Z,9.13
2023-04-02T20:27:41.902Z,8.35
2023-04-02T20:30:14.342Z,12.53
2023-04-02T20:32:46.466Z,6.67
2023-04-02T20:35:18.541Z,12.37
2023-04-02T20:37:50.689Z,7.55
2023-04-02T20:40:22.700Z,11.38
2023-04-02T20:42:54.830Z,11.20
2023-04-02T20:45:28.561Z,9.15
2023-04-02T20:48:00.858Z,8.68
2023-04-02T20:50:32.944Z,6.33
2023-04-02T20:53:05.006Z,6.20
2023-04-02T20:55:37.586Z,7.62
2023-04-02T20:58:09.713Z,5.87
2023-04-02T21:00:42.004Z,11.25
2023-04-02T21:03:14.463Z,7.45
2023-04-02T21:05:48.020Z,10.93
2023-04-02T21:08:21.266Z,7.75
2023-04-02T21:10:53.268Z,8.55
2023-04-02T21:13:25.390Z,7.53
2023-04-02T21:15:57.348Z,6.97
2023-04-02T21:18:29.693Z,6.90
2023-04-02T21:21:04.409Z,7.10
2023-04-02T21:26:09.367Z,8.68
2023-04-02T21:28:41.917Z,9.48
2023-04-02T21:31:26.006Z,7.95
2023-04-02T21:34:00.264Z,5.60
2023-04-02T21:36:35.074Z,9.38
2023-04-02T21:39:10.662Z,6.80
2023-04-02T21:41:46.841Z,7.95
2023-04-02T21:44:24.187Z,6.28
2023-04-02T21:46:56.309Z,6.22
2023-04-02T21:49:30.003Z,10.40
2023-04-02T21:52:01.980Z,14.80
2023-04-02T21:54:33.994Z,8.75
2023-04-02T21:57:06.082Z,8.60
2023-04-02T21:59:38.169Z,8.93
2023-04-02T22:02:10.483Z,5.53
2023-04-02T22:04:42.666Z,6.17
2023-04-02T22:07:14.757Z,5.50
2023-04-02T22:09:46.766Z,6.75
2023-04-02T22:12:19.127Z,5.53
2023-04-02T22:14:51.743Z,9.88
2023-04-02T22:17:23.762Z,7.87
2023-04-02T22:19:55.800Z,7.50
2023-04-02T22:22:27.841Z,9.53
2023-04-02T22:25:00.682Z,7.05
2023-04-02T22:27:32.788Z,9.75
2023-04-02T22:30:06.106Z,10.82
2023-04-02T22:32:39.838Z,7.45
2023-04-02T22:35:11.868Z,10.23
2023-04-02T22:37:43.881Z,11.08
2023-04-02T22:40:16.031Z,8.13
2023-04-02T22:42:49.036Z,10.85
2023-04-02T22:45:21.460Z,8.13
2023-04-02T22:47:53.759Z,7.25
2023-04-02T22:50:25.990Z,8.10
2023-04-02T22:52:57.992Z,8.30
2023-04-02T22:55:30.102Z,8.25
2023-04-02T22:58:01.982Z,7.53
2023-04-02T23:00:34.261Z,7.60
2023-04-02T23:03:07.030Z,8.25
2023-04-02T23:05:39.614Z,7.47
2023-04-02T23:08:11.505Z,8.10
2023-04-02T23:10:43.714Z,7.87
2023-04-02T23:13:16.085Z,8.00
2023-04-02T23:15:48.325Z,7.78
2023-04-02T23:18:20.431Z,8.30
2023-04-02T23:20:54.861Z,7.92
2023-04-02T23:23:27.946Z,10.53
2023-04-02T23:26:09.134Z,9.10
2023-04-02T23:28:42.132Z,7.47
2023-04-02T23:31:19.543Z,7.20
2023-04-02T23:33:53.116Z,7.15
2023-04-02T23:36:30.088Z,5.60
2023-04-02T23:39:05.045Z,11.85
2023-04-02T23:41:38.529Z,8.48
2023-04-02T23:44:11.564Z,6.17
2023-04-02T23:46:43.531Z,6.80
2023-04-02T23:49:15.751Z,6.42
2023-04-02T23:51:48.764Z,7.30
2023-04-02T23:54:20.920Z,7.37
2023-04-02T23:56:54.556Z,13.72
2023-04-02T23:59:26.619Z,11.40
